Time;durP1;ratioP1;P1;durP2;ratioP2;P2;SDS_P1;SDS_P2;PMS_P1;PMS_P2;Temp;Humidity;BMP_temperature;BMP_pressure;BME280_temperature;BME280_humidity;BME280_pressure;Samples;Min_cycle;Max_cycle;Signal;HPM_P1;HPM_P2
2021/12/19 00:02:05;;;;;;;50.45;20.90;;;;;;;1.44;80.91;101521.59;5039153;28;20052;-73
2021/12/19 00:10:51;;;;;;;39.58;18.83;;;;;;;1.48;81.36;101515.16;5045554;28;20057;-73
2021/12/19 00:13:37;;;;;;;47.28;19.23;;;;;;;1.39;81.40;101505.59;5044201;28;20037;-72
2021/12/19 00:16:23;;;;;;;43.47;17.05;;;;;;;1.32;81.06;101489.78;5038454;28;20028;-72
2021/12/19 00:19:09;;;;;;;40.75;17.60;;;;;;;1.43;81.45;101507.78;5045525;28;20041;-72
2021/12/19 00:21:55;;;;;;;37.40;18.25;;;;;;;1.44;81.94;101514.63;5050113;28;20440;-73
2021/12/19 00:24:40;;;;;;;38.15;16.73;;;;;;;1.41;81.81;101490.72;5050348;28;20055;-72
2021/12/19 00:27:26;;;;;;;36.65;17.80;;;;;;;1.36;81.68;101479.94;5041192;28;20088;-73
2021/12/19 00:30:12;;;;;;;44.38;18.10;;;;;;;1.41;81.75;101476.00;5041078;28;20064;-73
2021/12/19 00:32:59;;;;;;;37.70;16.92;;;;;;;1.51;81.56;101490.72;5045638;28;20487;-72
2021/12/19 00:35:45;;;;;;;38.33;17.63;;;;;;;1.38;80.76;101462.44;5046967;28;20041;-73
2021/12/19 00:38:31;;;;;;;37.63;16.45;;;;;;;1.58;81.30;101487.44;5046011;28;20091;-72
2021/12/19 00:41:17;;;;;;;40.53;17.40;;;;;;;1.61;81.35;101491.53;5048971;28;20033;-73
2021/12/19 00:44:14;;;;;;;39.30;17.58;;;;;;;1.44;81.47;101461.91;5043589;28;20091;-73
2021/12/19 00:47:07;;;;;;;40.65;17.65;;;;;;;1.61;81.36;101484.56;5049547;28;20063;-72
2021/12/19 00:49:54;;;;;;;42.60;18.50;;;;;;;1.68;81.08;101490.84;5040028;28;20029;-73
2021/12/19 00:52:40;;;;;;;38.85;17.35;;;;;;;1.62;81.10;101475.78;5048730;28;20550;-73
2021/12/19 00:55:27;;;;;;;34.40;15.68;;;;;;;1.69;81.14;101476.06;5043528;28;20431;-73
2021/12/19 00:58:13;;;;;;;39.15;16.73;;;;;;;1.66;80.88;101471.97;5046970;28;20486;-72
2021/12/19 01:01:00;;;;;;;37.85;16.80;;;;;;;1.46;81.03;101437.44;5042570;28;20106;-73
2021/12/19 01:03:47;;;;;;;36.95;15.68;;;;;;;1.61;80.64;101466.38;5036534;28;20500;-73
2021/12/19 01:06:33;;;;;;;38.28;16.20;;;;;;;1.56;81.08;101466.00;5039821;28;20041;-73
2021/12/19 01:09:19;;;;;;;42.50;17.83;;;;;;;1.57;81.28;101472.81;5044446;28;20506;-72
2021/12/19 01:12:09;;;;;;;36.25;16.27;;;;;;;1.50;81.23;101463.94;5047551;28;20037;-72
2021/12/19 01:14:55;;;;;;;37.03;18.45;;;;;;;1.47;81.67;101461.63;5046636;28;20029;-73
2021/12/19 01:17:41;;;;;;;36.65;17.08;;;;;;;1.49;81.58;101476.09;5047206;28;20075;-73
2021/12/19 01:20:29;;;;;;;38.95;17.33;;;;;;;1.08;81.74;101412.38;5044288;28;20525;-73
2021/12/19 01:23:15;;;;;;;39.63;17.50;;;;;;;1.38;81.97;101460.66;5047506;28;20454;-73
2021/12/19 01:26:00;;;;;;;36.58;17.70;;;;;;;1.32;82.18;101461.25;5041303;28;20084;-74
2021/12/19 01:28:46;;;;;;;40.25;17.73;;;;;;;1.27;82.27;101451.28;5048881;28;20095;-73
2021/12/19 01:31:32;;;;;;;40.50;17.70;;;;;;;1.25;82.35;101453.19;5043506;28;20037;-72
2021/12/19 01:34:17;;;;;;;39.78;17.20;;;;;;;1.27;82.41;101463.44;5035465;28;20087;-73
2021/12/19 01:37:03;;;;;;;43.47;17.45;;;;;;;1.25;82.65;101460.97;5038589;28;20029;-73
2021/12/19 01:39:49;;;;;;;36.72;17.77;;;;;;;1.23;82.62;101455.09;5039094;28;20040;-72
2021/12/19 01:42:40;;;;;;;38.28;17.20;;;;;;;1.20;82.73;101452.78;5047459;28;20037;-73
2021/12/19 01:45:33;;;;;;;32.67;15.82;;;;;;;1.08;82.88;101429.69;5044508;28;20048;-73
2021/12/19 01:48:21;;;;;;;36.15;15.73;;;;;;;1.15;82.81;101443.75;5040340;28;20450;-73
2021/12/19 01:51:07;;;;;;;37.95;16.05;;;;;;;1.14;83.00;101436.94;5034009;28;20041;-73
2021/12/19 01:53:52;;;;;;;37.10;15.60;;;;;;;1.09;82.82;101429.56;5044830;28;20415;-73
2021/12/19 01:56:39;;;;;;;34.53;15.27;;;;;;;1.05;83.33;101412.63;5042079;28;20461;-73
2021/12/19 01:59:25;;;;;;;34.88;16.83;;;;;;;0.99;83.61;101410.59;5037787;28;20491;-73
2021/12/19 02:02:11;;;;;;;37.40;17.05;;;;;;;1.01;83.80;101406.09;5043536;28;20050;-73
2021/12/19 02:04:57;;;;;;;39.55;17.48;;;;;;;0.95;83.70;101398.84;5040499;28;20487;-73
2021/12/19 02:07:46;;;;;;;36.53;16.48;;;;;;;1.03;83.62;101402.41;5041279;28;20049;-74
2021/12/19 02:10:33;;;;;;;39.05;16.77;;;;;;;1.03;83.42;101402.41;5042271;28;20402;-73
2021/12/19 02:13:20;;;;;;;38.80;17.05;;;;;;;0.99;83.57;101395.84;5044196;28;20032;-73
2021/12/19 02:16:05;;;;;;;41.10;17.05;;;;;;;0.92;83.66;101384.38;5043637;28;20056;-74
2021/12/19 02:18:51;;;;;;;34.33;16.58;;;;;;;0.93;83.83;101393.78;5043450;28;20045;-73
2021/12/19 02:21:38;;;;;;;37.08;16.33;;;;;;;0.93;83.91;101406.75;5044271;28;20127;-73
2021/12/19 02:24:24;;;;;;;41.28;17.65;;;;;;;0.90;84.59;101401.84;5045793;28;20036;-73
2021/12/19 02:27:09;;;;;;;38.03;17.38;;;;;;;0.86;84.60;101403.06;5042504;28;20094;-73
2021/12/19 02:29:58;;;;;;;46.83;19.85;;;;;;;0.76;84.57;101386.72;5045037;28;20033;-72
2021/12/19 02:32:44;;;;;;;45.83;19.52;;;;;;;0.70;85.17;101388.09;5046416;28;20495;-73
2021/12/19 02:35:33;;;;;;;45.13;18.35;;;;;;;0.72;85.03;101393.09;5041378;28;20063;-74
2021/12/19 02:50:51;;;;;;;40.35;17.20;;;;;;;0.75;85.96;101395.44;5037593;28;20045;-72
2021/12/19 02:53:38;;;;;;;;;;;;;;;0.76;85.94;101395.31;5050379;28;20028;-72
2021/12/19 02:56:24;;;;;;;38.47;16.75;;;;;;;0.74;85.70;101386.03;5045633;28;19920;-73
2021/12/19 02:59:10;;;;;;;34.40;16.38;;;;;;;0.60;85.78;101364.75;5043572;28;20033;-73
2021/12/19 03:01:56;;;;;;;39.95;17.33;;;;;;;0.64;86.02;101354.91;5034869;28;20053;-72
2021/12/19 03:04:55;;;;;;;39.20;17.55;;;;;;;0.57;86.37;101331.31;5037013;28;20068;-72
2021/12/19 03:07:43;;;;;;;;;;;;;;;0.63;86.36;101346.31;5049197;28;20155;-72
2021/12/19 03:19:27;;;;;;;41.78;16.70;;;;;;;0.50;86.38;101322.44;5038940;28;20033;-73
2021/12/19 03:22:13;;;;;;;41.20;16.88;;;;;;;0.48;86.61;101319.19;5048563;28;20040;-72
2021/12/19 03:24:58;;;;;;;36.45;16.42;;;;;;;0.53;86.43;101332.56;5047848;28;20111;-72
2021/12/19 03:27:45;;;;;;;43.47;17.08;;;;;;;0.55;86.41;101343.63;5051214;28;20032;-72
2021/12/19 03:30:32;;;;;;;39.80;17.70;;;;;;;0.54;86.15;101346.31;5040494;28;20095;-72
2021/12/19 03:33:17;;;;;;;44.25;19.75;;;;;;;0.50;85.88;101335.41;5041997;28;20040;-72
2021/12/19 03:36:05;;;;;;;41.80;18.67;;;;;;;0.56;86.11;101332.28;5046121;28;20068;-72
2021/12/19 03:38:57;;;;;;;41.15;17.83;;;;;;;0.44;85.98;101323.00;5043806;28;20052;-73
2021/12/19 03:41:43;;;;;;;39.30;18.23;;;;;;;0.43;86.44;101318.75;5045012;28;20036;-72
2021/12/19 03:44:29;;;;;;;40.50;18.67;;;;;;;0.53;86.33;101322.19;5037049;28;20060;-72
2021/12/19 03:47:14;;;;;;;40.95;18.33;;;;;;;0.55;86.36;101325.47;5044264;28;20099;-72
2021/12/19 03:50:02;;;;;;;48.70;18.63;;;;;;;0.52;86.13;101320.53;5037454;28;20033;-72
2021/12/19 03:52:49;;;;;;;41.60;19.23;;;;;;;0.50;86.02;101311.25;5051247;28;20073;-72
2021/12/19 03:55:36;;;;;;;42.22;19.60;;;;;;;0.57;86.35;101317.53;5050947;28;20032;-73
2021/12/19 03:58:22;;;;;;;45.78;19.13;;;;;;;0.53;86.29;101308.41;5050960;28;20040;-72
2021/12/19 04:01:09;;;;;;;44.35;18.83;;;;;;;0.46;86.35;101294.38;5035040;28;20034;-73
2021/12/19 04:03:57;;;;;;;40.50;17.45;;;;;;;0.45;86.46;101298.72;5041003;28;20045;-73
2021/12/19 04:06:42;;;;;;;46.00;20.02;;;;;;;0.48;86.31;101305.41;5047655;28;20032;-73
2021/12/19 04:09:28;;;;;;;43.10;19.30;;;;;;;0.44;86.31;101293.69;5052562;28;20045;-73
2021/12/19 04:12:15;;;;;;;43.08;18.23;;;;;;;0.46;86.41;101300.38;5050190;28;20108;-73
2021/12/19 04:15:00;;;;;;;43.10;19.20;;;;;;;0.42;86.25;101278.28;5038250;28;20048;-72
2021/12/19 04:17:46;;;;;;;42.85;18.65;;;;;;;0.36;86.66;101274.47;5052872;28;20552;-72
2021/12/19 04:20:32;;;;;;;47.22;19.92;;;;;;;0.36;86.28;101263.25;5065266;28;20048;-72
2021/12/19 04:23:18;;;;;;;37.05;18.13;;;;;;;0.36;86.44;101258.06;5045985;28;20028;-73
2021/12/19 04:26:04;;;;;;;44.50;19.27;;;;;;;0.34;86.50;101258.22;5050727;28;20029;-72
2021/12/19 04:28:49;;;;;;;40.28;18.70;;;;;;;0.21;86.34;101237.75;5051407;28;20032;-72
2021/12/19 04:31:35;;;;;;;48.67;19.38;;;;;;;0.23;86.44;101242.00;5049011;28;20045;-73
2021/12/19 04:34:22;;;;;;;41.75;19.52;;;;;;;0.27;86.52;101251.97;5046088;28;20403;-71
2021/12/19 04:40:38;;;;;;;48.63;20.58;;;;;;;0.12;86.36;101230.00;5022924;28;20079;-73
2021/12/19 05:16:36;;;;;;;47.45;20.23;;;;;;;-0.14;87.92;101224.56;5041204;28;20034;-74
2021/12/19 05:22:07;;;;;;;49.75;20.40;;;;;;;-0.16;88.13;101200.56;5037596;28;20059;-73
2021/12/19 05:25:14;;;;;;;47.20;20.58;;;;;;;-0.08;88.18;101208.47;5041283;28;20055;-73
2021/12/19 05:28:00;;;;;;;47.83;21.25;;;;;;;-0.11;88.17;101199.19;5045872;28;20029;-73
2021/12/19 05:30:46;;;;;;;47.67;20.83;;;;;;;-0.17;88.53;101194.53;5042220;28;20041;-73
2021/12/19 05:33:32;;;;;;;44.65;21.42;;;;;;;-0.11;88.97;101198.38;5036303;28;20393;-73
2021/12/19 05:45:15;;;;;;;48.90;21.65;;;;;;;-0.06;89.04;101178.91;5044870;28;20037;-72
2021/12/19 05:48:01;;;;;;;51.80;22.27;;;;;;;-0.03;88.93;101176.03;5040696;28;20033;-73
2021/12/19 05:50:47;;;;;;;50.65;22.92;;;;;;;0.03;89.40;101176.47;5037395;28;20033;-74
2021/12/19 05:53:32;;;;;;;51.28;21.17;;;;;;;0.01;89.84;101160.25;5033783;28;20041;-74
2021/12/19 05:56:19;;;;;;;53.97;22.75;;;;;;;-0.04;89.67;101164.03;5037804;28;20037;-73
2021/12/19 05:59:06;;;;;;;56.35;21.30;;;;;;;0.06;90.00;101166.63;5032957;28;20033;-74
2021/12/19 06:01:52;;;;;;;49.33;22.23;;;;;;;0.07;90.00;101170.84;5043491;28;20878;-73
2021/12/19 06:04:37;;;;;;;49.17;22.58;;;;;;;0.06;90.10;101173.59;5047372;28;20033;-73
2021/12/19 06:07:23;;;;;;;47.55;23.05;;;;;;;0.03;89.75;101159.16;5043996;28;20064;-73
2021/12/19 06:10:11;;;;;;;47.90;22.02;;;;;;;0.09;89.51;101168.94;5036862;28;20045;-73
2021/12/19 06:13:00;;;;;;;63.35;27.95;;;;;;;0.28;91.28;101172.47;5039837;28;20030;-74
2021/12/19 06:15:50;;;;;;;56.30;24.40;;;;;;;0.30;91.29;101158.44;5050098;28;20379;-74
2021/12/19 06:18:35;;;;;;;;;;;;;;;0.35;90.84;101173.56;5054634;28;20065;-73
2021/12/19 06:21:21;;;;;;;50.47;22.70;;;;;;;0.31;90.91;101154.06;5038841;28;19912;-73
2021/12/19 06:24:07;;;;;;;53.17;23.88;;;;;;;0.31;90.56;101151.47;5044673;28;20037;-73
2021/12/19 06:26:53;;;;;;;54.10;23.23;;;;;;;0.32;90.50;101147.94;5054189;28;20490;-72
2021/12/19 06:29:39;;;;;;;46.95;21.85;;;;;;;0.28;90.44;101128.44;5051772;28;20554;-73
2021/12/19 06:32:24;;;;;;;50.45;23.40;;;;;;;0.33;90.67;101144.38;5043509;28;20498;-74
2021/12/19 06:35:18;;;;;;;50.97;23.77;;;;;;;0.35;90.75;101132.91;5045700;28;20732;-73
2021/12/19 06:38:04;;;;;;;54.97;22.45;;;;;;;0.38;90.61;101121.44;5045359;28;20041;-74
2021/12/19 06:40:49;;;;;;;47.53;21.58;;;;;;;0.33;90.59;101110.69;5048441;28;20112;-72
2021/12/19 06:43:35;;;;;;;52.85;23.52;;;;;;;0.39;90.65;101110.97;5039747;28;20045;-73
2021/12/19 06:46:21;;;;;;;52.67;24.05;;;;;;;0.41;91.01;101118.59;5047928;28;20037;-72
2021/12/19 06:49:07;;;;;;;47.60;21.83;;;;;;;0.33;91.08;101110.69;5037716;28;20036;-72
2021/12/19 06:51:53;;;;;;;49.00;23.10;;;;;;;0.47;90.95;101133.56;5041928;28;20085;-72
2021/12/19 06:54:39;;;;;;;52.10;23.52;;;;;;;0.29;90.97;101102.41;5047562;28;20521;-72
2021/12/19 06:57:25;;;;;;;58.80;24.85;;;;;;;0.52;91.24;101133.97;5038958;28;20033;-72
2021/12/19 07:00:17;;;;;;;66.45;29.48;;;;;;;0.72;92.11;101123.53;5051238;28;20621;-73
2021/12/19 07:03:03;;;;;;;60.83;25.63;;;;;;;0.68;91.56;101106.66;5043865;28;20045;-74
2021/12/19 07:05:50;;;;;;;60.40;26.48;;;;;;;0.68;91.18;101099.69;5039166;28;20033;-76
2021/12/19 07:08:36;;;;;;;56.63;24.33;;;;;;;0.67;91.51;101103.25;5042328;28;20035;-75
2021/12/19 07:11:21;;;;;;;56.45;24.35;;;;;;;0.58;91.63;101085.94;5037408;28;20496;-76
2021/12/19 07:14:07;;;;;;;53.47;25.58;;;;;;;0.64;91.89;101070.63;5038764;28;20048;-76
2021/12/19 07:16:53;;;;;;;51.92;23.63;;;;;;;0.72;91.91;101084.63;5043676;28;20032;-77
2021/12/19 07:19:39;;;;;;;55.20;23.88;;;;;;;0.77;91.77;101088.44;5038581;28;20045;-76
2021/12/19 07:22:24;;;;;;;48.88;22.45;;;;;;;0.76;91.92;101083.41;5034354;28;20030;-77
2021/12/19 07:25:10;;;;;;;47.83;21.42;;;;;;;0.83;91.84;101089.66;5038014;28;20037;-75
2021/12/19 07:27:56;;;;;;;52.85;22.70;;;;;;;0.72;92.24;101077.72;5035600;28;20033;-76
2021/12/19 07:30:42;;;;;;;47.03;21.90;;;;;;;0.59;92.29;101046.09;5050161;28;20080;-75
2021/12/19 07:33:28;;;;;;;50.47;22.38;;;;;;;0.93;92.24;101087.81;5046612;28;20044;-78
2021/12/19 07:36:14;;;;;;;47.25;21.50;;;;;;;0.85;91.82;101064.41;5046464;28;20391;-76
2021/12/19 07:39:05;;;;;;;50.63;21.85;;;;;;;0.87;91.82;101065.06;5035774;28;20033;-75
2021/12/19 07:41:52;;;;;;;47.40;21.63;;;;;;;1.05;91.99;101084.09;5050810;28;20043;-76
2021/12/19 07:44:39;;;;;;;44.97;21.58;;;;;;;0.99;92.23;101056.13;5034240;28;20502;-75
2021/12/19 07:47:24;;;;;;;48.83;21.45;;;;;;;1.03;92.41;101054.88;5034951;28;20030;-75
2021/12/19 07:50:12;;;;;;;43.95;21.00;;;;;;;1.15;91.66;101062.44;5041559;28;20127;-77
2021/12/19 07:52:58;;;;;;;47.83;21.30;;;;;;;1.10;92.10;101046.50;5037452;28;20482;-75
2021/12/19 07:55:44;;;;;;;45.03;20.67;;;;;;;1.16;91.80;101044.13;5033928;28;20504;-75
2021/12/19 07:58:30;;;;;;;45.25;20.83;;;;;;;1.16;91.74;101046.72;5041315;28;20529;-73
2021/12/19 08:01:15;;;;;;;41.15;19.38;;;;;;;1.19;91.90;101037.84;5039878;28;20372;-76
2021/12/19 08:04:01;;;;;;;43.20;20.02;;;;;;;1.24;91.98;101046.00;5045842;28;20068;-76
2021/12/19 08:06:47;;;;;;;41.63;20.05;;;;;;;1.33;91.85;101065.84;5038457;28;20043;-74
2021/12/19 08:09:38;;;;;;;48.60;21.38;;;;;;;1.26;91.64;101046.66;5052322;28;20035;-74
2021/12/19 08:12:24;;;;;;;40.67;20.08;;;;;;;1.28;91.24;101037.75;5040080;28;20045;-76
2021/12/19 08:15:12;;;;;;;45.55;20.67;;;;;;;1.44;91.71;101059.66;5039031;28;20028;-75
2021/12/19 08:17:57;;;;;;;43.80;20.05;;;;;;;1.39;91.50;101043.69;5053097;28;20557;-75
2021/12/19 08:20:43;;;;;;;47.90;21.20;;;;;;;1.47;91.32;101047.19;5052612;28;20037;-75
2021/12/19 08:23:29;;;;;;;44.45;21.25;;;;;;;1.44;91.30;101031.09;5037480;28;20120;-75
2021/12/19 08:26:15;;;;;;;41.03;18.83;;;;;;;1.34;91.20;101007.00;5049914;28;20033;-75
2021/12/19 08:29:01;;;;;;;42.30;19.73;;;;;;;1.53;91.09;101019.00;5041869;28;20037;-75
2021/12/19 08:31:46;;;;;;;43.28;19.08;;;;;;;1.41;91.57;100977.72;5039094;28;20404;-75
2021/12/19 08:34:32;;;;;;;43.35;19.38;;;;;;;1.48;91.19;100980.50;5052721;28;20082;-76
2021/12/19 08:37:18;;;;;;;44.42;18.10;;;;;;;1.67;91.50;101000.28;5042667;28;20082;-77
2021/12/19 08:40:09;;;;;;;36.40;17.63;;;;;;;1.57;91.41;100971.00;5032373;28;20115;-75
2021/12/19 08:42:57;;;;;;;43.10;18.90;;;;;;;1.65;90.90;100990.06;5051295;28;20090;-74
2021/12/19 08:45:43;;;;;;;42.35;19.55;;;;;;;1.73;90.95;100994.50;5044219;28;20037;-75
2021/12/19 08:48:29;;;;;;;40.22;18.80;;;;;;;1.70;90.94;100980.03;5043461;28;20127;-75
2021/12/19 08:51:15;;;;;;;39.05;18.17;;;;;;;1.73;91.09;100978.91;5039734;28;20071;-74
2021/12/19 08:54:02;;;;;;;39.20;18.13;;;;;;;1.89;90.63;100983.38;5036995;28;20091;-75
2021/12/19 08:56:48;;;;;;;40.15;17.88;;;;;;;1.74;90.61;100946.78;5047396;28;20029;-78
2021/12/19 08:59:34;;;;;;;36.17;18.02;;;;;;;1.75;90.85;100945.00;5055676;28;20044;-77
2021/12/19 09:02:19;;;;;;;39.92;17.80;;;;;;;1.90;90.51;100966.84;5045355;28;20091;-77
2021/12/19 09:05:05;;;;;;;37.20;17.30;;;;;;;1.85;90.60;100967.28;5055662;28;20044;-77
2021/12/19 09:07:51;;;;;;;38.60;17.15;;;;;;;1.94;90.27;100972.53;5048954;28;20059;-78
2021/12/19 09:10:37;;;;;;;40.55;18.83;;;;;;;1.93;90.42;100974.31;5052115;28;20094;-78
2021/12/19 09:13:23;;;;;;;36.78;16.90;;;;;;;2.01;90.39;100982.16;5048959;28;20436;-78
2021/12/19 09:16:09;;;;;;;37.03;18.02;;;;;;;1.94;90.75;100959.53;5036997;28;20573;-78
2021/12/19 09:18:55;;;;;;;44.97;18.05;;;;;;;2.00;90.17;100975.31;5055996;28;20051;-79
2021/12/19 09:21:41;;;;;;;38.35;17.95;;;;;;;2.05;90.03;100969.66;5041451;28;20037;-78
2021/12/19 09:24:27;;;;;;;39.05;19.00;;;;;;;2.12;89.98;100975.88;5040203;28;20029;-78
2021/12/19 09:27:12;;;;;;;38.60;17.98;;;;;;;2.02;90.09;100951.81;5040630;28;20113;-78
2021/12/19 09:29:58;;;;;;;37.80;18.08;;;;;;;2.08;90.13;100952.00;5046605;28;20040;-77
2021/12/19 09:32:44;;;;;;;39.50;18.70;;;;;;;2.09;90.00;100947.63;5040999;28;20037;-78
2021/12/19 09:35:30;;;;;;;42.65;19.98;;;;;;;2.16;89.67;100947.81;5039482;28;20057;-74
2021/12/19 09:38:16;;;;;;;46.03;19.90;;;;;;;1.95;89.97;100904.03;5038041;28;20136;-74
2021/12/19 09:41:12;;;;;;;48.38;20.00;;;;;;;2.21;90.04;100935.97;5042932;28;20047;-75
2021/12/19 09:44:02;;;;;;;36.15;17.83;;;;;;;2.32;89.82;100946.09;5041343;28;20452;-76
2021/12/19 09:46:49;;;;;;;37.28;18.77;;;;;;;2.34;89.57;100935.53;5049705;28;20038;-75
2021/12/19 09:49:35;;;;;;;38.72;18.38;;;;;;;2.37;90.02;100931.78;5047797;28;20047;-74
2021/12/19 09:52:21;;;;;;;35.55;18.73;;;;;;;2.36;89.37;100930.97;5055089;28;20405;-74
2021/12/19 09:55:07;;;;;;;40.40;20.38;;;;;;;2.45;89.29;100934.44;5048490;28;20048;-74
2021/12/19 09:57:54;;;;;;;36.88;18.55;;;;;;;2.45;89.06;100921.44;5047956;28;20036;-74
2021/12/19 10:00:39;;;;;;;40.00;18.98;;;;;;;2.51;89.36;100912.97;5045057;28;20515;-74
2021/12/19 10:03:25;;;;;;;37.08;19.08;;;;;;;2.53;89.05;100893.66;5048065;28;20045;-74
2021/12/19 10:06:16;;;;;;;37.10;18.35;;;;;;;2.53;89.17;100882.44;5038923;28;20410;-73
2021/12/19 10:09:15;;;;;;;42.58;18.08;;;;;;;2.55;88.58;100880.50;5041980;28;20491;-73
2021/12/19 10:12:36;;;;;;;40.22;17.38;;;;;;;2.57;89.15;100878.56;5050249;28;20407;-74
2021/12/19 10:15:33;;;;;;;35.03;17.40;;;;;;;2.64;88.61;100884.75;5047362;28;20115;-74
2021/12/19 10:18:19;;;;;;;40.90;17.70;;;;;;;2.66;88.76;100877.59;5051129;28;20040;-73
2021/12/19 10:21:05;;;;;;;36.40;18.02;;;;;;;2.64;88.79;100870.94;5038682;28;20052;-73
2021/12/19 10:23:51;;;;;;;39.10;18.65;;;;;;;2.66;89.04;100861.16;5052391;28;20045;-74
2021/12/19 10:26:44;;;;;;;35.78;17.40;;;;;;;2.69;88.40;100859.06;5058483;28;20041;-74
2021/12/19 10:29:44;;;;;;;39.10;18.42;;;;;;;2.69;88.83;100840.88;5048667;28;20037;-74
2021/12/19 10:32:30;;;;;;;36.33;17.58;;;;;;;2.83;88.44;100847.22;5045537;28;20036;-75
2021/12/19 10:35:30;;;;;;;38.42;17.33;;;;;;;2.85;88.64;100834.03;5043204;28;20052;-76
2021/12/19 10:38:22;;;;;;;35.65;17.27;;;;;;;2.90;88.47;100837.78;5042464;28;20033;-76
2021/12/19 10:41:25;;;;;;;38.03;18.67;;;;;;;2.92;87.89;100828.03;5060353;28;20064;-76
2021/12/19 10:45:29;;;;;;;34.17;17.17;;;;;;;2.87;88.08;100801.69;5038375;28;20033;-76
2021/12/19 10:47:23;;;;;;;41.45;18.38;;;;;;;2.88;88.22;100792.91;5042991;28;20045;-76
2021/12/19 10:50:09;;;;;;;39.97;19.40;;;;;;;2.87;88.49;100780.06;5056451;28;20063;-76
2021/12/19 10:53:03;;;;;;;40.20;19.02;;;;;;;3.02;87.77;100798.41;5052836;28;20140;-76
2021/12/19 10:55:50;;;;;;;37.75;18.63;;;;;;;2.99;88.33;100781.34;5054015;28;20049;-76
2021/12/19 10:58:52;;;;;;;40.78;19.02;;;;;;;2.97;87.50;100765.13;5044105;28;20521;-76
2021/12/19 11:01:41;;;;;;;39.60;19.42;;;;;;;3.16;87.15;100769.94;5045858;28;20044;-76
2021/12/19 11:04:27;;;;;;;34.87;18.33;;;;;;;3.17;86.65;100757.72;5048434;28;20073;-77
2021/12/19 11:07:22;;;;;;;32.13;16.83;;;;;;;3.17;87.04;100752.53;5046439;28;20491;-76
2021/12/19 11:10:29;;;;;;;38.72;19.60;;;;;;;3.27;87.19;100758.34;5040506;28;20045;-76
2021/12/19 11:13:16;;;;;;;38.05;17.20;;;;;;;3.26;87.07;100745.50;5037122;28;20687;-76
2021/12/19 11:16:03;;;;;;;34.90;17.15;;;;;;;3.25;86.35;100728.25;5043351;28;20040;-75
2021/12/19 11:18:50;;;;;;;33.10;16.35;;;;;;;3.28;87.23;100726.16;5043664;28;20041;-74
2021/12/19 11:21:37;;;;;;;32.88;16.63;;;;;;;3.41;86.68;100720.38;5036395;28;20037;-75
2021/12/19 11:24:24;;;;;;;31.48;16.38;;;;;;;3.41;85.92;100708.19;5043568;28;20033;-74
2021/12/19 11:27:09;;;;;;;31.73;15.98;;;;;;;3.26;85.65;100670.03;5048417;28;20038;-76
2021/12/19 11:29:57;;;;;;;35.10;16.75;;;;;;;3.45;85.92;100689.59;5041274;28;20127;-75
2021/12/19 11:32:59;;;;;;;30.27;16.38;;;;;;;3.46;85.69;100684.25;5037346;28;20042;-75
2021/12/19 11:35:47;;;;;;;33.83;16.45;;;;;;;3.57;86.24;100688.25;5039214;28;20500;-75
2021/12/19 11:38:36;;;;;;;36.50;17.23;;;;;;;3.55;85.89;100682.41;5043625;28;20419;-75
2021/12/19 11:41:22;;;;;;;32.00;16.40;;;;;;;3.55;85.58;100664.19;5051948;28;20087;-75
2021/12/19 11:44:09;;;;;;;35.45;16.80;;;;;;;3.65;85.57;100666.56;5047403;28;20041;-75
2021/12/19 11:46:56;;;;;;;30.77;16.02;;;;;;;3.60;85.01;100649.66;5041524;28;20450;-75
2021/12/19 11:49:41;;;;;;;33.28;16.58;;;;;;;3.55;84.80;100633.75;5043049;28;20041;-75
2021/12/19 11:52:30;;;;;;;29.55;15.30;;;;;;;3.65;84.77;100661.34;5036620;28;20041;-74
2021/12/19 11:55:24;;;;;;;29.73;14.90;;;;;;;3.66;84.48;100657.75;5040401;28;20116;-75
2021/12/19 11:58:12;;;;;;;27.95;15.98;;;;;;;3.74;84.52;100668.13;5048344;28;20040;-74
2021/12/19 12:01:03;;;;;;;29.20;15.02;;;;;;;3.76;84.46;100664.38;5046140;28;20049;-75
2021/12/19 12:04:24;;;;;;;35.60;15.55;;;;;;;3.76;84.16;100663.53;5042518;28;20041;-74
2021/12/19 12:07:10;;;;;;;26.67;14.45;;;;;;;3.73;83.71;100645.66;5018876;28;20041;-75
2021/12/19 12:09:56;;;;;;;34.58;15.88;;;;;;;3.68;84.15;100627.16;5050446;28;20116;-74
2021/12/19 12:12:50;;;;;;;31.58;15.48;;;;;;;3.75;83.87;100630.69;5041694;28;20037;-75
2021/12/19 12:15:36;;;;;;;29.83;14.63;;;;;;;3.73;83.81;100622.22;5044627;28;20031;-75
2021/12/19 12:18:43;;;;;;;29.20;15.05;;;;;;;3.44;83.57;100557.84;5042190;28;20029;-75
2021/12/19 12:24:22;;;;;;;31.13;14.73;;;;;;;3.73;83.80;100611.81;5041752;28;20037;-75
2021/12/19 12:27:12;;;;;;;33.15;15.77;;;;;;;3.78;83.26;100612.09;5040788;28;20403;-76
2021/12/19 12:29:58;;;;;;;30.63;13.65;;;;;;;3.72;83.52;100605.00;5046540;28;20036;-73
2021/12/19 12:32:45;;;;;;;29.35;14.45;;;;;;;3.53;83.59;100575.03;5033747;28;20037;-74
2021/12/19 12:35:33;;;;;;;33.80;17.35;;;;;;;3.79;83.38;100621.53;5033371;28;20427;-74
2021/12/19 12:38:20;;;;;;;30.75;15.57;;;;;;;3.75;83.28;100607.25;5039864;28;20152;-74
2021/12/19 12:41:10;;;;;;;28.33;14.75;;;;;;;3.72;83.46;100618.00;5046743;28;20422;-75
2021/12/19 12:44:02;;;;;;;;;;;;;;;3.90;83.77;100630.72;5037949;28;20111;-76
2021/12/19 12:46:50;;;;;;;29.08;14.45;;;;;;;3.99;83.57;100625.25;5033525;28;19967;-75
2021/12/19 12:49:36;;;;;;;25.15;14.15;;;;;;;3.97;83.12;100606.38;5038149;28;20045;-76
2021/12/19 12:52:22;;;;;;;25.52;13.63;;;;;;;4.03;82.85;100597.06;5042224;28;20091;-75
2021/12/19 12:55:08;;;;;;;28.95;14.48;;;;;;;4.11;82.79;100599.59;5040008;28;20033;-75
2021/12/19 12:57:54;;;;;;;27.77;14.48;;;;;;;4.07;82.84;100584.50;5037759;28;20399;-75
2021/12/19 13:00:40;;;;;;;27.63;14.05;;;;;;;4.16;82.72;100588.63;5039003;28;20487;-75
2021/12/19 13:03:30;;;;;;;26.30;13.75;;;;;;;4.11;82.38;100575.34;5034153;28;20053;-75
2021/12/19 13:06:34;;;;;;;28.15;14.43;;;;;;;4.16;82.35;100579.00;5038045;28;20063;-75
2021/12/19 13:09:31;;;;;;;32.85;16.38;;;;;;;4.16;82.21;100573.81;5035177;28;20166;-77
2021/12/19 13:12:31;;;;;;;32.22;16.10;;;;;;;3.90;82.42;100536.94;5049644;28;20131;-78
2021/12/19 13:15:17;;;;;;;26.25;13.77;;;;;;;4.04;82.58;100549.97;5036404;28;20042;-76
2021/12/19 13:18:02;;;;;;;30.02;14.50;;;;;;;4.10;82.11;100558.09;5035120;28;20055;-78
2021/12/19 13:20:48;;;;;;;27.90;15.52;;;;;;;4.24;82.33;100572.94;5048717;28;20048;-78
2021/12/19 13:23:34;;;;;;;30.52;15.30;;;;;;;4.20;82.09;100550.81;5039950;28;20040;-74
2021/12/19 13:26:30;;;;;;;29.02;15.73;;;;;;;4.24;81.94;100558.09;5033094;28;20036;-75
2021/12/19 13:29:18;;;;;;;32.10;15.75;;;;;;;4.18;81.83;100552.78;5035457;28;20044;-75
2021/12/19 13:32:17;;;;;;;27.33;13.65;;;;;;;4.09;81.83;100543.44;5031303;28;20159;-74
2021/12/19 13:35:19;;;;;;;28.83;14.90;;;;;;;4.10;82.13;100555.50;5050573;28;20768;-76
2021/12/19 13:38:25;;;;;;;24.30;12.88;;;;;;;3.92;82.05;100524.53;5043294;28;20034;-74
2021/12/19 13:41:11;;;;;;;30.77;15.10;;;;;;;3.96;82.22;100531.03;5038864;28;20044;-75
2021/12/19 13:43:57;;;;;;;28.65;14.20;;;;;;;3.91;82.26;100526.34;5038561;28;20029;-76
2021/12/19 13:46:43;;;;;;;29.75;13.80;;;;;;;3.89;82.05;100515.28;5039552;28;20154;-74
2021/12/19 13:49:29;;;;;;;23.92;13.30;;;;;;;3.91;82.56;100505.50;5038977;28;20047;-75
2021/12/19 13:52:15;;;;;;;27.20;13.65;;;;;;;3.92;82.72;100520.13;5035465;28;20045;-76
2021/12/19 13:55:06;;;;;;;28.40;14.20;;;;;;;3.90;82.82;100514.28;5040009;28;20116;-76
2021/12/19 13:58:07;;;;;;;29.67;15.52;;;;;;;3.83;82.83;100510.78;5044685;28;20105;-76
2021/12/19 14:00:54;;;;;;;28.90;15.40;;;;;;;3.86;82.91;100513.06;5038514;28;20048;-76
2021/12/19 14:03:59;;;;;;;29.25;15.55;;;;;;;3.75;83.34;100488.22;5049885;28;20078;-76
2021/12/19 14:06:46;;;;;;;29.27;15.27;;;;;;;3.72;83.12;100490.41;5041712;28;20072;-75
2021/12/19 14:09:39;;;;;;;34.40;16.70;;;;;;;3.73;83.60;100497.22;5032898;28;20041;-74
2021/12/19 14:12:28;;;;;;;33.50;16.52;;;;;;;3.74;83.38;100493.63;5043804;28;20033;-74